sensor_id;sensor_type;location;lat;lon;timestamp;pressure;altitude;pressure_sealevel;temperature
71564;BMP180;59391;52.504;13.438;2022-11-02T00:01:32;101482.00;;;15.70
71564;BMP180;59391;52.504;13.438;2022-11-02T00:03:58;101472.00;;;15.70
71564;BMP180;59391;52.504;13.438;2022-11-02T00:06:23;101476.00;;;15.70
71564;BMP180;59391;52.504;13.438;2022-11-02T00:08:49;101469.00;;;15.60
71564;BMP180;59391;52.504;13.438;2022-11-02T00:11:15;101474.00;;;15.60
71564;BMP180;59391;52.504;13.438;2022-11-02T00:13:40;101480.00;;;15.60
71564;BMP180;59391;52.504;13.438;2022-11-02T00:16:10;101484.00;;;15.60
71564;BMP180;59391;52.504;13.438;2022-11-02T00:18:37;101491.00;;;15.60
71564;BMP180;59391;52.504;13.438;2022-11-02T00:21:03;101477.00;;;15.50
71564;BMP180;59391;52.504;13.438;2022-11-02T00:23:30;101474.00;;;15.50
71564;BMP180;59391;52.504;13.438;2022-11-02T00:25:57;101477.00;;;15.50
71564;BMP180;59391;52.504;13.438;2022-11-02T00:28:23;101479.00;;;15.40
71564;BMP180;59391;52.504;13.438;2022-11-02T00:30:49;101484.00;;;15.40
71564;BMP180;59391;52.504;13.438;2022-11-02T00:33:14;101478.00;;;15.40
71564;BMP180;59391;52.504;13.438;2022-11-02T00:35:40;101471.00;;;15.40
71564;BMP180;59391;52.504;13.438;2022-11-02T00:38:06;101472.00;;;15.30
71564;BMP180;59391;52.504;13.438;2022-11-02T00:40:32;101479.00;;;15.30
71564;BMP180;59391;52.504;13.438;2022-11-02T00:42:57;101479.00;;;15.30
71564;BMP180;59391;52.504;13.438;2022-11-02T00:45:23;101480.00;;;15.20
71564;BMP180;59391;52.504;13.438;2022-11-02T00:47:49;101474.00;;;15.20
71564;BMP180;59391;52.504;13.438;2022-11-02T00:50:15;101482.00;;;15.10
71564;BMP180;59391;52.504;13.438;2022-11-02T00:52:41;101486.00;;;15.10
71564;BMP180;59391;52.504;13.438;2022-11-02T00:55:09;101486.00;;;15.00
71564;BMP180;59391;52.504;13.438;2022-11-02T00:57:37;101482.00;;;15.00
71564;BMP180;59391;52.504;13.438;2022-11-02T01:00:06;101487.00;;;15.00
71564;BMP180;59391;52.504;13.438;2022-11-02T01:02:32;101483.00;;;14.90
71564;BMP180;59391;52.504;13.438;2022-11-02T01:05:16;101483.00;;;14.80
71564;BMP180;59391;52.504;13.438;2022-11-02T01:07:44;101479.00;;;14.90
71564;BMP180;59391;52.504;13.438;2022-11-02T01:10:10;101480.00;;;14.80
71564;BMP180;59391;52.504;13.438;2022-11-02T01:12:37;101480.00;;;14.80
71564;BMP180;59391;52.504;13.438;2022-11-02T01:15:06;101473.00;;;14.80
71564;BMP180;59391;52.504;13.438;2022-11-02T01:17:32;101477.00;;;14.80
71564;BMP180;59391;52.504;13.438;2022-11-02T01:19:58;101478.00;;;14.80
71564;BMP180;59391;52.504;13.438;2022-11-02T01:22:24;101485.00;;;14.70
71564;BMP180;59391;52.504;13.438;2022-11-02T01:24:49;101483.00;;;14.70
71564;BMP180;59391;52.504;13.438;2022-11-02T01:27:15;101485.00;;;14.70
71564;BMP180;59391;52.504;13.438;2022-11-02T01:29:40;101487.00;;;14.60
71564;BMP180;59391;52.504;13.438;2022-11-02T01:32:07;101489.00;;;14.50
71564;BMP180;59391;52.504;13.438;2022-11-02T01:34:32;101478.00;;;14.50
71564;BMP180;59391;52.504;13.438;2022-11-02T01:36:58;101482.00;;;14.50
71564;BMP180;59391;52.504;13.438;2022-11-02T01:39:23;101485.00;;;14.50
71564;BMP180;59391;52.504;13.438;2022-11-02T01:41:52;101480.00;;;14.50
71564;BMP180;59391;52.504;13.438;2022-11-02T01:44:30;101480.00;;;14.40
71564;BMP180;59391;52.504;13.438;2022-11-02T01:47:13;101465.00;;;14.40
71564;BMP180;59391;52.504;13.438;2022-11-02T01:49:44;101467.00;;;14.40
71564;BMP180;59391;52.504;13.438;2022-11-02T01:52:30;101464.00;;;14.40
71564;BMP180;59391;52.504;13.438;2022-11-02T01:55:20;101457.00;;;14.30
71564;BMP180;59391;52.504;13.438;2022-11-02T01:57:59;101450.00;;;14.30
71564;BMP180;59391;52.504;13.438;2022-11-02T02:00:26;101463.00;;;14.30
71564;BMP180;59391;52.504;13.438;2022-11-02T02:03:05;101446.00;;;14.30
71564;BMP180;59391;52.504;13.438;2022-11-02T02:05:37;101456.00;;;14.30
71564;BMP180;59391;52.504;13.438;2022-11-02T02:08:04;101449.00;;;14.30
71564;BMP180;59391;52.504;13.438;2022-11-02T02:10:33;101457.00;;;14.30
71564;BMP180;59391;52.504;13.438;2022-11-02T02:12:59;101455.00;;;14.30
71564;BMP180;59391;52.504;13.438;2022-11-02T02:15:40;101455.00;;;14.30
71564;BMP180;59391;52.504;13.438;2022-11-02T02:18:40;101460.00;;;14.30
71564;BMP180;59391;52.504;13.438;2022-11-02T02:27:17;101462.00;;;14.10
71564;BMP180;59391;52.504;13.438;2022-11-02T02:30:09;101455.00;;;14.10
71564;BMP180;59391;52.504;13.438;2022-11-02T02:32:47;101445.00;;;14.00
71564;BMP180;59391;52.504;13.438;2022-11-02T02:35:26;101439.00;;;14.10
71564;BMP180;59391;52.504;13.438;2022-11-02T02:41:22;101436.00;;;14.10
71564;BMP180;59391;52.504;13.438;2022-11-02T02:43:54;101437.00;;;14.00
71564;BMP180;59391;52.504;13.438;2022-11-02T02:46:36;101430.00;;;14.00
71564;BMP180;59391;52.504;13.438;2022-11-02T02:49:09;101443.00;;;14.00
71564;BMP180;59391;52.504;13.438;2022-11-02T02:51:37;101422.00;;;14.00
71564;BMP180;59391;52.504;13.438;2022-11-02T02:54:34;101438.00;;;14.00
71564;BMP180;59391;52.504;13.438;2022-11-02T02:57:08;101434.00;;;14.00
71564;BMP180;59391;52.504;13.438;2022-11-02T02:59:46;101436.00;;;14.00
71564;BMP180;59391;52.504;13.438;2022-11-02T03:02:35;101439.00;;;14.00
71564;BMP180;59391;52.504;13.438;2022-11-02T03:05:01;101431.00;;;14.00
71564;BMP180;59391;52.504;13.438;2022-11-02T03:07:32;101431.00;;;14.00
71564;BMP180;59391;52.504;13.438;2022-11-02T03:10:20;101440.00;;;14.00
71564;BMP180;59391;52.504;13.438;2022-11-02T03:13:37;101442.00;;;13.90
71564;BMP180;59391;52.504;13.438;2022-11-02T03:23:27;101425.00;;;13.80
71564;BMP180;59391;52.504;13.438;2022-11-02T03:26:06;101438.00;;;13.70
71564;BMP180;59391;52.504;13.438;2022-11-02T03:29:09;101424.00;;;13.70
71564;BMP180;59391;52.504;13.438;2022-11-02T03:32:10;101437.00;;;13.70
71564;BMP180;59391;52.504;13.438;2022-11-02T03:34:54;101397.00;;;13.60
71564;BMP180;59391;52.504;13.438;2022-11-02T03:37:28;101408.00;;;13.60
71564;BMP180;59391;52.504;13.438;2022-11-02T03:40:15;101436.00;;;13.60
71564;BMP180;59391;52.504;13.438;2022-11-02T03:42:44;101436.00;;;13.60
71564;BMP180;59391;52.504;13.438;2022-11-02T03:45:45;101430.00;;;13.50
71564;BMP180;59391;52.504;13.438;2022-11-02T03:48:13;101423.00;;;13.60
71564;BMP180;59391;52.504;13.438;2022-11-02T03:50:48;101448.00;;;13.60
71564;BMP180;59391;52.504;13.438;2022-11-02T03:53:43;101449.00;;;13.70
71564;BMP180;59391;52.504;13.438;2022-11-02T03:56:34;101431.00;;;13.60
71564;BMP180;59391;52.504;13.438;2022-11-02T03:59:01;101437.00;;;13.60
71564;BMP180;59391;52.504;13.438;2022-11-02T04:01:28;101436.00;;;13.60
71564;BMP180;59391;52.504;13.438;2022-11-02T04:03:55;101436.00;;;13.60
71564;BMP180;59391;52.504;13.438;2022-11-02T04:06:21;101418.00;;;13.50
71564;BMP180;59391;52.504;13.438;2022-11-02T04:08:48;101438.00;;;13.50
71564;BMP180;59391;52.504;13.438;2022-11-02T04:11:15;101449.00;;;13.50
71564;BMP180;59391;52.504;13.438;2022-11-02T04:13:59;101429.00;;;13.50
71564;BMP180;59391;52.504;13.438;2022-11-02T04:16:44;101436.00;;;13.50
71564;BMP180;59391;52.504;13.438;2022-11-02T04:19:13;101418.00;;;13.40
71564;BMP180;59391;52.504;13.438;2022-11-02T04:21:55;101415.00;;;13.40
71564;BMP180;59391;52.504;13.438;2022-11-02T04:24:40;101419.00;;;13.40
71564;BMP180;59391;52.504;13.438;2022-11-02T04:27:25;101426.00;;;13.40
71564;BMP180;59391;52.504;13.438;2022-11-02T04:29:50;101419.00;;;13.30
71564;BMP180;59391;52.504;13.438;2022-11-02T04:32:17;101431.00;;;13.30
71564;BMP180;59391;52.504;13.438;2022-11-02T04:35:03;101421.00;;;13.20
71564;BMP180;59391;52.504;13.438;2022-11-02T04:37:28;101428.00;;;13.20
71564;BMP180;59391;52.504;13.438;2022-11-02T04:40:13;101428.00;;;13.20
71564;BMP180;59391;52.504;13.438;2022-11-02T04:42:38;101431.00;;;13.20
71564;BMP180;59391;52.504;13.438;2022-11-02T04:45:04;101417.00;;;13.20
71564;BMP180;59391;52.504;13.438;2022-11-02T04:47:30;101435.00;;;13.20
71564;BMP180;59391;52.504;13.438;2022-11-02T04:49:56;101427.00;;;13.10
71564;BMP180;59391;52.504;13.438;2022-11-02T04:52:21;101440.00;;;13.20
71564;BMP180;59391;52.504;13.438;2022-11-02T04:54:47;101422.00;;;13.10
71564;BMP180;59391;52.504;13.438;2022-11-02T04:57:12;101442.00;;;13.10
71564;BMP180;59391;52.504;13.438;2022-11-02T04:59:40;101423.00;;;13.10
71564;BMP180;59391;52.504;13.438;2022-11-02T05:02:06;101432.00;;;13.10
71564;BMP180;59391;52.504;13.438;2022-11-02T05:04:32;101439.00;;;13.10
71564;BMP180;59391;52.504;13.438;2022-11-02T05:06:57;101436.00;;;13.10
71564;BMP180;59391;52.504;13.438;2022-11-02T05:09:24;101437.00;;;13.10
71564;BMP180;59391;52.504;13.438;2022-11-02T05:11:50;101445.00;;;13.10
71564;BMP180;59391;52.504;13.438;2022-11-02T05:14:15;101432.00;;;13.10
71564;BMP180;59391;52.504;13.438;2022-11-02T05:16:41;101440.00;;;13.10
71564;BMP180;59391;52.504;13.438;2022-11-02T05:19:07;101439.00;;;13.10
71564;BMP180;59391;52.504;13.438;2022-11-02T05:21:32;101424.00;;;12.90
71564;BMP180;59391;52.504;13.438;2022-11-02T05:23:58;101436.00;;;13.10
71564;BMP180;59391;52.504;13.438;2022-11-02T05:26:24;101424.00;;;13.10
71564;BMP180;59391;52.504;13.438;2022-11-02T05:28:49;101423.00;;;13.00
71564;BMP180;59391;52.504;13.438;2022-11-02T05:31:17;101431.00;;;13.00
71564;BMP180;59391;52.504;13.438;2022-11-02T05:33:42;101427.00;;;13.00
71564;BMP180;59391;52.504;13.438;2022-11-02T05:36:08;101438.00;;;13.00
71564;BMP180;59391;52.504;13.438;2022-11-02T05:38:34;101428.00;;;13.00
71564;BMP180;59391;52.504;13.438;2022-11-02T05:41:00;101429.00;;;12.90
71564;BMP180;59391;52.504;13.438;2022-11-02T05:43:26;101408.00;;;12.90
71564;BMP180;59391;52.504;13.438;2022-11-02T05:45:58;101447.00;;;12.90
71564;BMP180;59391;52.504;13.438;2022-11-02T05:48:26;101451.00;;;12.90
71564;BMP180;59391;52.504;13.438;2022-11-02T05:50:58;101443.00;;;12.90
71564;BMP180;59391;52.504;13.438;2022-11-02T05:53:26;101448.00;;;12.90
71564;BMP180;59391;52.504;13.438;2022-11-02T05:55:57;101441.00;;;12.80
71564;BMP180;59391;52.504;13.438;2022-11-02T05:58:24;101438.00;;;12.90
71564;BMP180;59391;52.504;13.438;2022-11-02T06:00:50;101437.00;;;12.80
71564;BMP180;59391;52.504;13.438;2022-11-02T06:03:15;101442.00;;;12.90
71564;BMP180;59391;52.504;13.438;2022-11-02T06:05:42;101421.00;;;12.90
71564;BMP180;59391;52.504;13.438;2022-11-02T06:08:08;101439.00;;;12.90
71564;BMP180;59391;52.504;13.438;2022-11-02T06:10:34;101423.00;;;12.90
71564;BMP180;59391;52.504;13.438;2022-11-02T06:13:01;101453.00;;;12.90
71564;BMP180;59391;52.504;13.438;2022-11-02T06:15:30;101446.00;;;12.90
71564;BMP180;59391;52.504;13.438;2022-11-02T06:17:56;101440.00;;;13.00
71564;BMP180;59391;52.504;13.438;2022-11-02T06:20:22;101435.00;;;12.90
71564;BMP180;59391;52.504;13.438;2022-11-02T06:22:48;101438.00;;;12.90
71564;BMP180;59391;52.504;13.438;2022-11-02T06:25:18;101398.00;;;13.00
71564;BMP180;59391;52.504;13.438;2022-11-02T06:27:52;101408.00;;;13.00
71564;BMP180;59391;52.504;13.438;2022-11-02T06:30:22;101427.00;;;13.10
71564;BMP180;59391;52.504;13.438;2022-11-02T06:32:50;101431.00;;;13.10
71564;BMP180;59391;52.504;13.438;2022-11-02T06:35:18;101434.00;;;13.20
71564;BMP180;59391;52.504;13.438;2022-11-02T06:37:44;101436.00;;;13.20
71564;BMP180;59391;52.504;13.438;2022-11-02T06:40:12;101427.00;;;13.20
71564;BMP180;59391;52.504;13.438;2022-11-02T06:42:39;101434.00;;;13.30
71564;BMP180;59391;52.504;13.438;2022-11-02T06:45:06;101453.00;;;13.30
71564;BMP180;59391;52.504;13.438;2022-11-02T06:47:35;101464.00;;;13.30
71564;BMP180;59391;52.504;13.438;2022-11-02T06:50:02;101468.00;;;13.40
71564;BMP180;59391;52.504;13.438;2022-11-02T06:52:29;101465.00;;;13.40
71564;BMP180;59391;52.504;13.438;2022-11-02T06:54:55;101467.00;;;13.30
71564;BMP180;59391;52.504;13.438;2022-11-02T06:57:21;101479.00;;;13.40
71564;BMP180;59391;52.504;13.438;2022-11-02T06:59:49;101464.00;;;13.40
71564;BMP180;59391;52.504;13.438;2022-11-02T07:02:14;101472.00;;;13.50
71564;BMP180;59391;52.504;13.438;2022-11-02T07:04:40;101470.00;;;13.50
71564;BMP180;59391;52.504;13.438;2022-11-02T07:07:06;101469.00;;;13.60
71564;BMP180;59391;52.504;13.438;2022-11-02T07:09:31;101487.00;;;13.50
71564;BMP180;59391;52.504;13.438;2022-11-02T07:11:57;101480.00;;;13.60
71564;BMP180;59391;52.504;13.438;2022-11-02T07:14:23;101474.00;;;13.60
71564;BMP180;59391;52.504;13.438;2022-11-02T07:16:49;101473.00;;;13.60
71564;BMP180;59391;52.504;13.438;2022-11-02T07:19:15;101454.00;;;13.70
71564;BMP180;59391;52.504;13.438;2022-11-02T07:21:41;101474.00;;;13.70
71564;BMP180;59391;52.504;13.438;2022-11-02T07:24:09;101469.00;;;13.70
71564;BMP180;59391;52.504;13.438;2022-11-02T07:26:35;101465.00;;;13.80
71564;BMP180;59391;52.504;13.438;2022-11-02T07:29:00;101462.00;;;14.00
71564;BMP180;59391;52.504;13.438;2022-11-02T07:31:26;101472.00;;;14.30
71564;BMP180;59391;52.504;13.438;2022-11-02T07:33:52;101469.00;;;14.60
71564;BMP180;59391;52.504;13.438;2022-11-02T07:36:17;101457.00;;;14.90
71564;BMP180;59391;52.504;13.438;2022-11-02T07:38:43;101459.00;;;15.30
71564;BMP180;59391;52.504;13.438;2022-11-02T07:41:08;101487.00;;;15.50
71564;BMP180;59391;52.504;13.438;2022-11-02T07:43:34;101469.00;;;15.80
71564;BMP180;59391;52.504;13.438;2022-11-02T07:46:03;101477.00;;;16.00
71564;BMP180;59391;52.504;13.438;2022-11-02T07:48:28;101484.00;;;16.20
71564;BMP180;59391;52.504;13.438;2022-11-02T07:50:59;101466.00;;;16.20
71564;BMP180;59391;52.504;13.438;2022-11-02T07:53:25;101482.00;;;16.40
71564;BMP180;59391;52.504;13.438;2022-11-02T07:55:50;101470.00;;;16.40
71564;BMP180;59391;52.504;13.438;2022-11-02T07:58:16;101470.00;;;16.40
71564;BMP180;59391;52.504;13.438;2022-11-02T08:00:42;101463.00;;;16.20
71564;BMP180;59391;52.504;13.438;2022-11-02T08:03:10;101475.00;;;16.30
71564;BMP180;59391;52.504;13.438;2022-11-02T08:05:39;101479.00;;;16.30
71564;BMP180;59391;52.504;13.438;2022-11-02T08:10:34;101469.00;;;16.20
71564;BMP180;59391;52.504;13.438;2022-11-02T08:13:00;101486.00;;;16.10
71564;BMP180;59391;52.504;13.438;2022-11-02T08:15:26;101473.00;;;16.10
71564;BMP180;59391;52.504;13.438;2022-11-02T08:18:16;101465.00;;;15.90
71564;BMP180;59391;52.504;13.438;2022-11-02T08:20:42;101471.00;;;16.00
71564;BMP180;59391;52.504;13.438;2022-11-02T08:23:09;101472.00;;;15.90
71564;BMP180;59391;52.504;13.438;2022-11-02T08:25:36;101468.00;;;15.90
71564;BMP180;59391;52.504;13.438;2022-11-02T08:28:04;101483.00;;;15.90
71564;BMP180;59391;52.504;13.438;2022-11-02T08:30:31;101495.00;;;15.80
71564;BMP180;59391;52.504;13.438;2022-11-02T08:33:06;101485.00;;;15.90
71564;BMP180;59391;52.504;13.438;2022-11-02T08:35:34;101491.00;;;15.90
71564;BMP180;59391;52.504;13.438;2022-11-02T08:38:02;101486.00;;;15.90
71564;BMP180;59391;52.504;13.438;2022-11-02T08:40:29;101489.00;;;15.80
71564;BMP180;59391;52.504;13.438;2022-11-02T08:43:00;101488.00;;;15.90
71564;BMP180;59391;52.504;13.438;2022-11-02T08:45:27;101496.00;;;15.80
71564;BMP180;59391;52.504;13.438;2022-11-02T08:47:54;101491.00;;;15.70
71564;BMP180;59391;52.504;13.438;2022-11-02T08:50:21;101485.00;;;15.70
71564;BMP180;59391;52.504;13.438;2022-11-02T08:52:47;101464.00;;;15.80
71564;BMP180;59391;52.504;13.438;2022-11-02T08:55:13;101485.00;;;15.80
71564;BMP180;59391;52.504;13.438;2022-11-02T08:57:50;101484.00;;;15.70
71564;BMP180;59391;52.504;13.438;2022-11-02T09:00:19;101488.00;;;15.50
71564;BMP180;59391;52.504;13.438;2022-11-02T09:03:05;101494.00;;;15.70
71564;BMP180;59391;52.504;13.438;2022-11-02T09:05:37;101488.00;;;15.80
71564;BMP180;59391;52.504;13.438;2022-11-02T09:08:06;101487.00;;;15.90
71564;BMP180;59391;52.504;13.438;2022-11-02T09:10:34;101494.00;;;15.90
71564;BMP180;59391;52.504;13.438;2022-11-02T09:13:03;101494.00;;;16.00
71564;BMP180;59391;52.504;13.438;2022-11-02T09:15:31;101489.00;;;16.30
71564;BMP180;59391;52.504;13.438;2022-11-02T09:17:58;101487.00;;;16.80
71564;BMP180;59391;52.504;13.438;2022-11-02T09:20:23;101480.00;;;17.00
71564;BMP180;59391;52.504;13.438;2022-11-02T09:22:49;101478.00;;;17.20
71564;BMP180;59391;52.504;13.438;2022-11-02T09:25:15;101493.00;;;17.50
71564;BMP180;59391;52.504;13.438;2022-11-02T09:27:42;101497.00;;;18.00
71564;BMP180;59391;52.504;13.438;2022-11-02T09:30:09;101496.00;;;18.30
71564;BMP180;59391;52.504;13.438;2022-11-02T09:32:35;101496.00;;;18.70
71564;BMP180;59391;52.504;13.438;2022-11-02T09:35:10;101493.00;;;19.00
71564;BMP180;59391;52.504;13.438;2022-11-02T09:37:36;101496.00;;;19.10
71564;BMP180;59391;52.504;13.438;2022-11-02T09:40:04;101497.00;;;19.40
71564;BMP180;59391;52.504;13.438;2022-11-02T09:43:04;101494.00;;;19.50
71564;BMP180;59391;52.504;13.438;2022-11-02T09:45:55;101483.00;;;19.70
71564;BMP180;59391;52.504;13.438;2022-11-02T09:48:30;101496.00;;;20.00
71564;BMP180;59391;52.504;13.438;2022-11-02T09:51:20;101494.00;;;20.40
71564;BMP180;59391;52.504;13.438;2022-11-02T09:56:45;101506.00;;;20.40
71564;BMP180;59391;52.504;13.438;2022-11-02T09:59:25;101502.00;;;20.20
71564;BMP180;59391;52.504;13.438;2022-11-02T10:02:04;101501.00;;;20.30
71564;BMP180;59391;52.504;13.438;2022-11-02T10:04:52;101504.00;;;20.50
71564;BMP180;59391;52.504;13.438;2022-11-02T10:10:35;101504.00;;;20.80
71564;BMP180;59391;52.504;13.438;2022-11-02T10:13:37;101508.00;;;20.50
71564;BMP180;59391;52.504;13.438;2022-11-02T10:16:14;101505.00;;;20.90
71564;BMP180;59391;52.504;13.438;2022-11-02T10:18:43;101505.00;;;21.00
71564;BMP180;59391;52.504;13.438;2022-11-02T10:21:19;101503.00;;;21.40
71564;BMP180;59391;52.504;13.438;2022-11-02T10:23:51;101528.00;;;21.80
71564;BMP180;59391;52.504;13.438;2022-11-02T10:26:33;101503.00;;;21.40
71564;BMP180;59391;52.504;13.438;2022-11-02T10:29:17;101511.00;;;21.40
71564;BMP180;59391;52.504;13.438;2022-11-02T10:31:44;101503.00;;;21.80
71564;BMP180;59391;52.504;13.438;2022-11-02T10:34:23;101512.00;;;22.30
71564;BMP180;59391;52.504;13.438;2022-11-02T10:37:43;101508.00;;;22.80
71564;BMP180;59391;52.504;13.438;2022-11-02T10:40:38;101518.00;;;22.90
71564;BMP180;59391;52.504;13.438;2022-11-02T10:52:19;101504.00;;;23.10
71564;BMP180;59391;52.504;13.438;2022-11-02T10:54:50;101526.00;;;23.10
71564;BMP180;59391;52.504;13.438;2022-11-02T10:57:22;101517.00;;;23.50
71564;BMP180;59391;52.504;13.438;2022-11-02T11:03:03;101516.00;;;24.00
71564;BMP180;59391;52.504;13.438;2022-11-02T11:05:31;101526.00;;;23.90
71564;BMP180;59391;52.504;13.438;2022-11-02T11:07:59;101525.00;;;24.10
71564;BMP180;59391;52.504;13.438;2022-11-02T11:10:35;101527.00;;;24.20
71564;BMP180;59391;52.504;13.438;2022-11-02T11:13:02;101517.00;;;24.70
71564;BMP180;59391;52.504;13.438;2022-11-02T11:15:31;101532.00;;;25.00
71564;BMP180;59391;52.504;13.438;2022-11-02T11:17:58;101516.00;;;24.60
71564;BMP180;59391;52.504;13.438;2022-11-02T11:20:37;101537.00;;;24.30
71564;BMP180;59391;52.504;13.438;2022-11-02T11:23:25;101537.00;;;24.00
71564;BMP180;59391;52.504;13.438;2022-11-02T11:26:04;101552.00;;;23.90
71564;BMP180;59391;52.504;13.438;2022-11-02T11:28:53;101549.00;;;23.40
71564;BMP180;59391;52.504;13.438;2022-11-02T11:31:19;101550.00;;;22.80
71564;BMP180;59391;52.504;13.438;2022-11-02T11:33:51;101535.00;;;22.30
71564;BMP180;59391;52.504;13.438;2022-11-02T11:36:33;101552.00;;;21.90
71564;BMP180;59391;52.504;13.438;2022-11-02T11:39:03;101557.00;;;21.60
71564;BMP180;59391;52.504;13.438;2022-11-02T11:41:32;101553.00;;;21.40
71564;BMP180;59391;52.504;13.438;2022-11-02T11:44:00;101549.00;;;21.30
71564;BMP180;59391;52.504;13.438;2022-11-02T11:46:49;101531.00;;;21.00
71564;BMP180;59391;52.504;13.438;2022-11-02T11:49:33;101548.00;;;20.80
71564;BMP180;59391;52.504;13.438;2022-11-02T11:52:01;101545.00;;;20.70
71564;BMP180;59391;52.504;13.438;2022-11-02T11:54:32;101551.00;;;20.50
71564;BMP180;59391;52.504;13.438;2022-11-02T11:57:25;101543.00;;;20.30
71564;BMP180;59391;52.504;13.438;2022-11-02T11:59:53;101540.00;;;20.10
71564;BMP180;59391;52.504;13.438;2022-11-02T12:02:33;101553.00;;;19.90
71564;BMP180;59391;52.504;13.438;2022-11-02T12:05:17;101540.00;;;19.60
71564;BMP180;59391;52.504;13.438;2022-11-02T12:08:21;101544.00;;;19.70
71564;BMP180;59391;52.504;13.438;2022-11-02T12:17:16;101529.00;;;19.30
71564;BMP180;59391;52.504;13.438;2022-11-02T12:20:01;101538.00;;;19.20
71564;BMP180;59391;52.504;13.438;2022-11-02T12:28:02;101533.00;;;19.50
71564;BMP180;59391;52.504;13.438;2022-11-02T12:36:48;101533.00;;;20.70
71564;BMP180;59391;52.504;13.438;2022-11-02T12:42:28;101524.00;;;20.70
71564;BMP180;59391;52.504;13.438;2022-11-02T12:47:58;101530.00;;;20.30
71564;BMP180;59391;52.504;13.438;2022-11-02T12:51:03;101524.00;;;20.30
71564;BMP180;59391;52.504;13.438;2022-11-02T12:53:52;101533.00;;;20.60
71564;BMP180;59391;52.504;13.438;2022-11-02T12:59:37;101514.00;;;20.50
71564;BMP180;59391;52.504;13.438;2022-11-02T13:02:17;101529.00;;;20.70
71564;BMP180;59391;52.504;13.438;2022-11-02T13:05:23;101544.00;;;21.10
71564;BMP180;59391;52.504;13.438;2022-11-02T13:08:21;101542.00;;;21.60
71564;BMP180;59391;52.504;13.438;2022-11-02T13:10:57;101554.00;;;21.70
71564;BMP180;59391;52.504;13.438;2022-11-02T13:13:34;101532.00;;;21.90
71564;BMP180;59391;52.504;13.438;2022-11-02T13:16:03;101529.00;;;22.20
71564;BMP180;59391;52.504;13.438;2022-11-02T13:18:42;101546.00;;;22.20
71564;BMP180;59391;52.504;13.438;2022-11-02T13:21:12;101540.00;;;22.30
71564;BMP180;59391;52.504;13.438;2022-11-02T13:23:48;101552.00;;;22.60
71564;BMP180;59391;52.504;13.438;2022-11-02T13:26:28;101539.00;;;22.60
71564;BMP180;59391;52.504;13.438;2022-11-02T13:29:14;101554.00;;;22.70
71564;BMP180;59391;52.504;13.438;2022-11-02T13:31:54;101537.00;;;22.60
71564;BMP180;59391;52.504;13.438;2022-11-02T13:34:39;101554.00;;;22.40
71564;BMP180;59391;52.504;13.438;2022-11-02T13:37:33;101557.00;;;22.40
71564;BMP180;59391;52.504;13.438;2022-11-02T13:40:18;101543.00;;;22.40
71564;BMP180;59391;52.504;13.438;2022-11-02T13:43:08;101554.00;;;22.30
71564;BMP180;59391;52.504;13.438;2022-11-02T13:46:03;101568.00;;;22.20
71564;BMP180;59391;52.504;13.438;2022-11-02T13:48:39;101542.00;;;22.10
71564;BMP180;59391;52.504;13.438;2022-11-02T13:51:37;101554.00;;;22.20
71564;BMP180;59391;52.504;13.438;2022-11-02T13:54:16;101537.00;;;22.30
71564;BMP180;59391;52.504;13.438;2022-11-02T13:56:44;101545.00;;;22.50
71564;BMP180;59391;52.504;13.438;2022-11-02T13:59:32;101537.00;;;22.70
71564;BMP180;59391;52.504;13.438;2022-11-02T14:02:05;101546.00;;;22.90
71564;BMP180;59391;52.504;13.438;2022-11-02T14:04:39;101553.00;;;22.90
71564;BMP180;59391;52.504;13.438;2022-11-02T14:07:20;101549.00;;;22.80
71564;BMP180;59391;52.504;13.438;2022-11-02T14:09:48;101549.00;;;22.80
71564;BMP180;59391;52.504;13.438;2022-11-02T14:20:47;101556.00;;;21.70
71564;BMP180;59391;52.504;13.438;2022-11-02T14:25:48;101555.00;;;21.30
71564;BMP180;59391;52.504;13.438;2022-11-02T14:36:55;101527.00;;;20.70
71564;BMP180;59391;52.504;13.438;2022-11-02T14:42:58;101529.00;;;20.70
71564;BMP180;59391;52.504;13.438;2022-11-02T14:45:42;101579.00;;;20.70
71564;BMP180;59391;52.504;13.438;2022-11-02T14:48:14;101565.00;;;20.60
71564;BMP180;59391;52.504;13.438;2022-11-02T14:51:02;101574.00;;;20.50
71564;BMP180;59391;52.504;13.438;2022-11-02T14:53:32;101596.00;;;20.40
71564;BMP180;59391;52.504;13.438;2022-11-02T14:55:59;101536.00;;;20.30
71564;BMP180;59391;52.504;13.438;2022-11-02T14:58:54;101604.00;;;20.20
71564;BMP180;59391;52.504;13.438;2022-11-02T15:01:21;101605.00;;;20.10
71564;BMP180;59391;52.504;13.438;2022-11-02T15:03:48;101596.00;;;20.00
71564;BMP180;59391;52.504;13.438;2022-11-02T15:06:24;101598.00;;;19.90
71564;BMP180;59391;52.504;13.438;2022-11-02T15:09:01;101614.00;;;19.70
71564;BMP180;59391;52.504;13.438;2022-11-02T15:11:57;101580.00;;;19.50
71564;BMP180;59391;52.504;13.438;2022-11-02T15:19:44;101632.00;;;19.30
71564;BMP180;59391;52.504;13.438;2022-11-02T15:25:29;101630.00;;;19.10
71564;BMP180;59391;52.504;13.438;2022-11-02T15:28:11;101644.00;;;18.90
71564;BMP180;59391;52.504;13.438;2022-11-02T15:30:44;101633.00;;;18.80
71564;BMP180;59391;52.504;13.438;2022-11-02T15:33:35;101630.00;;;18.80
71564;BMP180;59391;52.504;13.438;2022-11-02T15:36:16;101644.00;;;18.80
71564;BMP180;59391;52.504;13.438;2022-11-02T15:38:51;101646.00;;;18.70
71564;BMP180;59391;52.504;13.438;2022-11-02T15:41:37;101638.00;;;18.60
71564;BMP180;59391;52.504;13.438;2022-11-02T15:47:12;101656.00;;;18.50
71564;BMP180;59391;52.504;13.438;2022-11-02T15:50:28;101678.00;;;18.40
71564;BMP180;59391;52.504;13.438;2022-11-02T15:56:38;101661.00;;;18.30
71564;BMP180;59391;52.504;13.438;2022-11-02T16:02:41;101663.00;;;18.00
71564;BMP180;59391;52.504;13.438;2022-11-02T16:05:19;101668.00;;;18.20